createdAt,value
2023-04-21T00:01:00.536Z,13.60
2023-04-21T00:03:30.456Z,14.82
2023-04-21T00:05:59.690Z,15.50
2023-04-21T00:08:30.259Z,12.52
2023-04-21T00:10:59.348Z,16.65
2023-04-21T00:13:29.763Z,17.23
2023-04-21T00:15:59.440Z,17.33
2023-04-21T00:18:28.775Z,15.13
2023-04-21T00:20:58.206Z,15.68
2023-04-21T00:23:27.334Z,16.58
2023-04-21T00:25:57.903Z,12.50
2023-04-21T00:28:26.984Z,16.02
2023-04-21T00:30:56.976Z,16.92
2023-04-21T00:33:26.290Z,16.55
2023-04-21T00:35:59.243Z,17.63
2023-04-21T00:38:29.801Z,16.13
2023-04-21T00:41:00.291Z,18.15
2023-04-21T00:43:29.679Z,18.75
2023-04-21T00:45:58.627Z,16.67
2023-04-21T00:48:30.722Z,17.00
2023-04-21T00:51:00.064Z,17.05
2023-04-21T00:53:31.192Z,17.60
2023-04-21T00:56:01.868Z,16.00
2023-04-21T00:58:31.136Z,16.80
2023-04-21T01:01:00.221Z,14.98
2023-04-21T01:03:29.892Z,16.05
2023-04-21T01:05:59.112Z,16.50
2023-04-21T01:08:32.592Z,16.95
2023-04-21T01:11:04.781Z,15.95
2023-04-21T01:13:34.506Z,17.15
2023-04-21T01:16:03.763Z,17.25
2023-04-21T01:18:33.306Z,17.55
2023-04-21T01:21:02.573Z,18.27
2023-04-21T01:23:32.907Z,19.23
2023-04-21T01:26:01.894Z,18.55
2023-04-21T01:28:31.330Z,20.90
2023-04-21T01:31:00.692Z,21.25
2023-04-21T01:33:29.930Z,20.30
2023-04-21T01:36:01.768Z,17.97
2023-04-21T01:38:30.770Z,18.80
2023-04-21T01:41:02.768Z,17.17
2023-04-21T01:43:31.818Z,18.77
2023-04-21T01:46:00.870Z,16.98
2023-04-21T01:48:32.641Z,20.08
2023-04-21T01:51:01.632Z,20.40
2023-04-21T01:53:31.029Z,18.42
2023-04-21T01:56:00.368Z,19.38
2023-04-21T01:58:30.872Z,21.15
2023-04-21T02:01:00.038Z,19.73
2023-04-21T02:03:29.787Z,18.25
2023-04-21T02:05:59.441Z,20.25
2023-04-21T02:08:28.493Z,17.27
2023-04-21T02:10:57.745Z,19.35
2023-04-21T02:13:26.856Z,20.60
2023-04-21T02:16:09.647Z,19.95
2023-04-21T02:18:42.426Z,21.10
2023-04-21T02:21:11.577Z,19.73
2023-04-21T02:23:40.765Z,20.13
2023-04-21T02:26:10.552Z,21.23
2023-04-21T02:28:39.587Z,21.70
2023-04-21T02:31:11.158Z,21.20
2023-04-21T02:33:40.401Z,20.23
2023-04-21T02:36:09.778Z,19.55
2023-04-21T02:38:38.741Z,21.15
2023-04-21T02:41:08.410Z,21.25
2023-04-21T02:43:37.559Z,20.25
2023-04-21T02:46:11.585Z,21.63
2023-04-21T02:48:42.782Z,22.30
2023-04-21T02:51:14.270Z,20.88
2023-04-21T02:56:13.111Z,21.60
2023-04-21T02:58:42.153Z,21.10
2023-04-21T03:01:12.836Z,23.52
2023-04-21T03:03:41.906Z,20.70
2023-04-21T03:06:14.210Z,23.63
2023-04-21T03:08:43.372Z,22.60
2023-04-21T03:11:13.640Z,23.02
2023-04-21T03:13:43.067Z,23.02
2023-04-21T03:16:14.262Z,21.80
2023-04-21T03:18:46.421Z,23.30
2023-04-21T03:21:15.871Z,23.88
2023-04-21T03:23:44.932Z,23.10
2023-04-21T03:26:16.471Z,22.08
2023-04-21T03:28:45.680Z,22.00
2023-04-21T03:31:16.902Z,21.63
2023-04-21T03:33:46.303Z,18.92
2023-04-21T03:36:16.064Z,21.73
2023-04-21T03:38:45.096Z,22.02
2023-04-21T03:41:14.196Z,22.80
2023-04-21T03:43:43.169Z,20.33
2023-04-21T03:46:20.723Z,23.67
2023-04-21T03:48:50.221Z,21.02
2023-04-21T03:51:19.325Z,22.80
2023-04-21T03:53:48.284Z,22.80
2023-04-21T03:56:17.270Z,23.17
2023-04-21T03:58:46.305Z,23.05
2023-04-21T04:01:15.884Z,23.58
2023-04-21T04:03:46.295Z,24.02
2023-04-21T04:06:16.553Z,24.65
2023-04-21T04:08:45.703Z,25.00
2023-04-21T04:11:14.794Z,22.83
2023-04-21T04:13:43.955Z,23.35
2023-04-21T04:16:13.370Z,25.83
2023-04-21T04:18:42.819Z,22.70
2023-04-21T04:21:13.827Z,24.92
2023-04-21T04:23:43.149Z,24.67
2023-04-21T04:26:12.493Z,22.23
2023-04-21T04:28:42.505Z,26.38
2023-04-21T04:31:13.493Z,23.95
2023-04-21T04:33:43.417Z,26.23
2023-04-21T04:36:13.811Z,25.55
2023-04-21T04:38:43.007Z,25.90
2023-04-21T04:41:12.942Z,25.42
2023-04-21T04:43:42.929Z,25.70
2023-04-21T04:46:13.117Z,26.17
2023-04-21T04:48:42.527Z,25.08
2023-04-21T04:51:11.685Z,24.98
2023-04-21T04:53:42.087Z,23.63
2023-04-21T04:56:11.150Z,23.42
2023-04-21T04:58:40.293Z,22.65
2023-04-21T05:01:14.114Z,25.23
2023-04-21T05:03:43.609Z,24.23
2023-04-21T05:06:14.063Z,26.75
2023-04-21T05:08:44.769Z,24.92
2023-04-21T05:11:14.006Z,24.60
2023-04-21T05:13:43.533Z,23.77
2023-04-21T05:16:14.052Z,22.63
2023-04-21T05:18:43.343Z,23.98
2023-04-21T05:21:12.546Z,21.85
2023-04-21T05:23:41.698Z,20.58
2023-04-21T05:26:12.145Z,21.98
2023-04-21T05:28:41.362Z,22.90
2023-04-21T05:31:10.448Z,24.73
2023-04-21T05:33:39.647Z,24.38
2023-04-21T05:36:10.573Z,22.70
2023-04-21T05:38:40.424Z,21.33
2023-04-21T05:41:09.589Z,23.10
2023-04-21T05:43:45.447Z,20.88
2023-04-21T05:46:15.127Z,22.20
2023-04-21T05:48:44.961Z,18.35
2023-04-21T05:51:15.511Z,19.42
2023-04-21T05:53:46.608Z,20.30
2023-04-21T05:56:15.893Z,18.97
2023-04-21T05:58:46.491Z,22.65
2023-04-21T06:01:15.814Z,21.73
2023-04-21T06:03:45.408Z,18.92
2023-04-21T06:06:15.218Z,21.55
2023-04-21T06:08:46.173Z,20.45
2023-04-21T06:11:15.447Z,22.33
2023-04-21T06:13:46.024Z,19.50
2023-04-21T06:16:15.783Z,20.15
2023-04-21T06:18:45.621Z,19.98
2023-04-21T06:21:14.715Z,21.27
2023-04-21T06:23:43.763Z,20.50
2023-04-21T06:26:13.794Z,18.70
2023-04-21T06:28:42.985Z,20.90
2023-04-21T06:31:15.507Z,22.30
2023-04-21T06:33:44.722Z,18.08
2023-04-21T06:36:17.982Z,20.35
2023-04-21T06:38:47.279Z,19.75
2023-04-21T06:41:16.638Z,18.83
2023-04-21T06:43:45.925Z,19.00
2023-04-21T06:46:16.412Z,19.45
2023-04-21T06:48:45.664Z,18.33
2023-04-21T06:51:15.018Z,16.15
2023-04-21T06:53:44.105Z,17.42
2023-04-21T06:56:13.222Z,16.67
2023-04-21T06:58:42.714Z,14.80
2023-04-21T07:01:12.006Z,15.23
2023-04-21T07:03:42.828Z,16.10
2023-04-21T07:06:12.530Z,17.17
2023-04-21T07:08:41.797Z,16.10
2023-04-21T07:11:10.870Z,16.75
2023-04-21T07:13:40.160Z,16.48
2023-04-21T07:16:12.148Z,17.02
2023-04-21T07:18:42.965Z,16.63
2023-04-21T07:21:14.289Z,17.45
2023-04-21T07:23:43.615Z,14.63
2023-04-21T07:26:12.726Z,13.82
2023-04-21T07:28:41.759Z,15.63
2023-04-21T07:31:11.100Z,14.13
2023-04-21T07:33:40.384Z,13.65
2023-04-21T07:36:12.259Z,14.85
2023-04-21T07:38:43.519Z,14.05
2023-04-21T07:41:13.753Z,13.30
2023-04-21T07:43:44.969Z,14.00
2023-04-21T07:46:14.387Z,13.83
2023-04-21T07:48:47.239Z,15.07
2023-04-21T07:51:41.586Z,13.18
2023-04-21T07:54:19.592Z,13.63
2023-04-21T07:57:10.762Z,13.40
2023-04-21T07:59:44.956Z,15.95
2023-04-21T08:02:14.066Z,14.63
2023-04-21T08:04:43.299Z,15.10
2023-04-21T08:07:15.889Z,14.95
2023-04-21T08:09:45.124Z,13.77
2023-04-21T08:12:14.124Z,13.05
2023-04-21T08:14:43.645Z,14.30
2023-04-21T08:17:13.410Z,14.55
2023-04-21T08:19:42.317Z,14.30
2023-04-21T08:22:11.347Z,13.77
2023-04-21T08:24:41.811Z,14.23
2023-04-21T08:27:10.996Z,14.00
2023-04-21T08:29:40.890Z,13.40
2023-04-21T08:32:10.181Z,14.90
2023-04-21T08:34:39.665Z,14.45
2023-04-21T08:37:08.551Z,15.10
2023-04-21T08:39:38.235Z,15.52
2023-04-21T08:42:09.820Z,15.50
2023-04-21T08:44:41.536Z,16.08
2023-04-21T08:47:11.811Z,17.55
2023-04-21T08:49:41.480Z,14.40
2023-04-21T08:52:10.896Z,16.13
2023-04-21T08:54:39.987Z,12.57
2023-04-21T08:57:15.187Z,12.18
2023-04-21T08:59:46.785Z,14.93
2023-04-21T09:02:17.219Z,13.15
2023-04-21T09:04:50.208Z,13.15
2023-04-21T09:07:32.539Z,11.35
2023-04-21T09:10:01.902Z,15.25
2023-04-21T09:12:32.615Z,15.85
2023-04-21T09:15:06.285Z,14.82
2023-04-21T09:17:36.918Z,13.68
2023-04-21T09:20:16.578Z,14.32
2023-04-21T09:22:45.792Z,15.13
2023-04-21T09:25:18.581Z,12.65
2023-04-21T09:27:49.055Z,11.90
2023-04-21T09:30:20.796Z,12.60
2023-04-21T09:32:51.321Z,9.40
2023-04-21T09:35:20.612Z,12.00
2023-04-21T09:37:49.633Z,12.70
2023-04-21T09:40:20.483Z,8.95
2023-04-21T09:42:51.819Z,9.45
2023-04-21T09:45:32.807Z,9.65
2023-04-21T09:48:11.274Z,10.43
2023-04-21T09:51:20.867Z,11.88
2023-04-21T09:53:30.505Z,9.18
2023-04-21T09:56:00.671Z,10.75
2023-04-21T09:58:34.935Z,10.68
2023-04-21T10:01:04.914Z,11.15
2023-04-21T10:03:34.167Z,10.10
2023-04-21T10:06:03.245Z,11.25
2023-04-21T10:08:32.492Z,10.25
2023-04-21T10:11:01.888Z,10.30
2023-04-21T10:13:32.565Z,10.63
2023-04-21T10:16:05.326Z,11.40
2023-04-21T10:18:36.602Z,8.68
2023-04-21T10:21:07.206Z,10.90
2023-04-21T10:23:39.603Z,10.38
2023-04-21T10:26:10.990Z,8.48
2023-04-21T10:28:54.664Z,10.90
2023-04-21T10:31:25.440Z,9.70
2023-04-21T10:34:18.750Z,59.80
2023-04-21T10:37:06.687Z,12.52
2023-04-21T10:39:36.908Z,11.43
2023-04-21T10:42:24.777Z,11.93
2023-04-21T10:44:56.001Z,8.73
2023-04-21T10:47:28.691Z,12.15
2023-04-21T10:49:59.552Z,8.00
2023-04-21T10:52:34.388Z,8.35
2023-04-21T10:55:07.139Z,8.52
2023-04-21T10:57:36.973Z,7.75
2023-04-21T11:00:11.691Z,6.20
2023-04-21T11:02:44.088Z,8.38
2023-04-21T11:05:14.731Z,7.93
2023-04-21T11:07:43.962Z,10.55
2023-04-21T11:10:13.453Z,9.00
2023-04-21T11:12:43.068Z,7.68
2023-04-21T11:15:16.419Z,9.32
2023-04-21T11:17:47.966Z,10.65
2023-04-21T11:20:22.337Z,10.45
2023-04-21T11:22:55.095Z,9.57
2023-04-21T11:25:24.879Z,10.52
2023-04-21T11:27:57.659Z,10.13
2023-04-21T11:30:35.194Z,10.57
2023-04-21T11:33:04.687Z,11.07
2023-04-21T11:35:37.523Z,11.77
2023-04-21T11:38:07.496Z,11.48
2023-04-21T11:40:46.497Z,11.85
2023-04-21T11:43:16.403Z,13.50
2023-04-21T11:45:50.631Z,12.45
2023-04-21T11:48:21.105Z,13.18
2023-04-21T11:50:50.795Z,14.15
2023-04-21T11:53:21.607Z,11.57
2023-04-21T11:55:51.072Z,10.95
2023-04-21T11:58:23.068Z,11.23
2023-04-21T12:00:54.474Z,9.98
2023-04-21T12:03:24.093Z,10.30
2023-04-21T12:05:58.853Z,9.48
2023-04-21T12:08:31.522Z,9.43
2023-04-21T12:11:00.629Z,10.45
2023-04-21T12:13:31.163Z,11.07
2023-04-21T12:16:04.631Z,10.88
2023-04-21T12:18:36.664Z,10.90
2023-04-21T12:21:07.390Z,11.40
2023-04-21T12:23:39.162Z,13.55
2023-04-21T12:26:08.396Z,12.63
2023-04-21T12:28:37.646Z,12.48
2023-04-21T12:31:08.411Z,13.23
2023-04-21T12:33:37.736Z,12.30
2023-04-21T12:36:06.923Z,12.63
2023-04-21T12:38:36.299Z,13.02
2023-04-21T12:41:05.960Z,14.15
2023-04-21T12:43:35.193Z,12.07
2023-04-21T12:46:05.206Z,12.77
2023-04-21T12:48:35.933Z,12.82
2023-04-21T12:51:04.928Z,12.10
2023-04-21T12:53:34.213Z,12.50
2023-04-21T12:56:05.049Z,11.82
2023-04-21T12:58:34.505Z,11.48
2023-04-21T13:01:03.568Z,12.93
2023-04-21T13:03:32.710Z,12.90
2023-04-21T13:06:03.152Z,12.68
2023-04-21T13:08:32.407Z,9.82
2023-04-21T13:11:01.444Z,11.48
2023-04-21T13:13:30.564Z,13.00
2023-04-21T13:15:59.990Z,12.18
2023-04-21T13:18:29.523Z,11.25
2023-04-21T13:20:58.654Z,11.25
2023-04-21T13:23:28.942Z,12.88
2023-04-21T13:25:58.228Z,12.38
2023-04-21T13:28:27.818Z,12.30
2023-04-21T13:30:57.085Z,12.60
2023-04-21T13:33:27.517Z,12.82
2023-04-21T13:36:02.886Z,12.52
2023-04-21T13:38:35.339Z,11.55
2023-04-21T13:41:05.990Z,12.25
2023-04-21T13:43:35.057Z,8.80
2023-04-21T13:46:04.225Z,11.63
2023-04-21T13:48:33.158Z,11.05
2023-04-21T13:51:02.136Z,12.15
2023-04-21T13:53:31.314Z,11.75
2023-04-21T13:56:01.685Z,11.30
2023-04-21T13:58:30.947Z,11.93
2023-04-21T14:00:59.859Z,13.00
2023-04-21T14:03:29.783Z,14.10
2023-04-21T14:05:59.671Z,12.77
2023-04-21T14:08:28.708Z,12.13
2023-04-21T14:10:57.666Z,13.85
2023-04-21T14:13:36.120Z,12.73
2023-04-21T14:16:07.089Z,12.93
2023-04-21T14:18:36.468Z,12.68
2023-04-21T14:21:05.820Z,13.05
2023-04-21T14:23:34.757Z,14.25
2023-04-21T14:26:03.810Z,15.25
2023-04-21T14:28:34.311Z,13.65
2023-04-21T14:31:04.328Z,14.52
2023-04-21T14:33:33.940Z,15.23
2023-04-21T14:36:03.547Z,24.48
2023-04-21T14:38:32.916Z,13.00
2023-04-21T14:41:01.876Z,15.98
2023-04-21T14:43:30.831Z,14.60
2023-04-21T14:46:01.269Z,13.38
2023-04-21T14:48:30.374Z,14.68
2023-04-21T14:50:59.476Z,15.45
2023-04-21T14:53:28.690Z,14.00
2023-04-21T14:55:57.761Z,14.75
2023-04-21T14:58:26.719Z,14.25
2023-04-21T15:00:56.430Z,15.00
2023-04-21T15:03:27.285Z,13.70
2023-04-21T15:05:56.542Z,14.68
2023-04-21T15:08:25.754Z,14.68
2023-04-21T15:10:55.004Z,12.60
2023-04-21T15:13:24.187Z,11.18
2023-04-21T15:15:53.136Z,12.60
2023-04-21T15:18:22.068Z,13.90
2023-04-21T15:20:52.371Z,15.10
2023-04-21T15:23:22.614Z,16.63
2023-04-21T15:25:52.297Z,20.30
2023-04-21T15:28:21.312Z,16.77
2023-04-21T15:30:50.458Z,18.60
2023-04-21T15:33:19.624Z,17.75
2023-04-21T15:35:49.012Z,20.42
2023-04-21T15:38:21.169Z,18.40
2023-04-21T15:41:00.864Z,18.95
2023-04-21T15:43:30.837Z,19.73
2023-04-21T15:45:59.949Z,22.25
2023-04-21T15:48:28.919Z,19.90
2023-04-21T15:50:58.207Z,21.38
2023-04-21T15:53:28.590Z,20.08
2023-04-21T15:55:57.660Z,21.10
2023-04-21T15:58:26.883Z,20.35
2023-04-21T16:00:56.835Z,17.40
2023-04-21T16:03:26.264Z,18.92
2023-04-21T16:05:56.132Z,15.80
2023-04-21T16:08:25.474Z,16.10
2023-04-21T16:10:55.871Z,17.70
2023-04-21T16:13:25.001Z,19.17
2023-04-21T16:15:54.117Z,15.45
2023-04-21T16:18:23.193Z,18.35
2023-04-21T16:20:52.799Z,19.75
2023-04-21T16:23:22.126Z,20.45
2023-04-21T16:25:51.312Z,17.60
2023-04-21T16:28:22.318Z,20.55
2023-04-21T16:30:51.417Z,22.02
2023-04-21T16:33:20.780Z,21.73
2023-04-21T16:35:52.121Z,22.35
2023-04-21T16:38:21.339Z,15.88
2023-04-21T16:40:50.480Z,21.70
2023-04-21T16:43:19.479Z,19.48
2023-04-21T16:45:50.628Z,22.95
2023-04-21T16:48:19.618Z,22.37
2023-04-21T16:50:48.837Z,21.83
2023-04-21T16:53:17.889Z,21.63
2023-04-21T16:55:46.891Z,23.85
2023-04-21T16:58:15.902Z,24.40
2023-04-21T17:00:46.300Z,25.48
2023-04-21T17:03:26.365Z,25.30
2023-04-21T17:06:10.609Z,27.05
2023-04-21T17:08:39.506Z,24.73
2023-04-21T17:11:08.408Z,27.60
2023-04-21T17:13:39.189Z,25.63
2023-04-21T17:16:09.045Z,25.02
2023-04-21T17:18:39.978Z,24.40
2023-04-21T17:21:09.299Z,25.85
2023-04-21T17:23:38.159Z,24.52
2023-04-21T17:26:07.277Z,26.25
2023-04-21T17:28:36.338Z,26.13
2023-04-21T17:31:15.111Z,28.50
2023-04-21T17:33:46.704Z,26.88
2023-04-21T17:36:16.928Z,25.92
2023-04-21T17:38:46.277Z,28.17
2023-04-21T17:41:15.232Z,24.60
2023-04-21T17:43:44.318Z,27.70
2023-04-21T17:46:13.259Z,27.83
2023-04-21T17:48:42.328Z,26.15
2023-04-21T17:51:14.752Z,25.10
2023-04-21T17:53:44.109Z,24.38
2023-04-21T17:56:14.526Z,23.50
2023-04-21T17:58:43.708Z,26.60
2023-04-21T18:01:12.784Z,25.45
2023-04-21T18:03:43.044Z,25.67
2023-04-21T18:06:16.019Z,23.95
2023-04-21T18:08:45.361Z,25.25
2023-04-21T18:11:14.283Z,24.35
2023-04-21T18:13:43.305Z,27.27
2023-04-21T18:16:12.528Z,26.55
2023-04-21T18:18:41.579Z,27.67
2023-04-21T18:21:11.579Z,24.63
2023-04-21T18:23:41.977Z,24.88
2023-04-21T18:26:11.606Z,25.90
2023-04-21T18:28:40.629Z,26.23
2023-04-21T18:31:09.581Z,26.27
2023-04-21T18:33:38.962Z,24.45
2023-04-21T18:36:08.608Z,26.15
2023-04-21T18:38:37.883Z,25.90
2023-04-21T18:41:08.308Z,23.65
2023-04-21T18:43:37.525Z,22.25
2023-04-21T18:46:06.852Z,24.98
2023-04-21T18:48:36.286Z,26.27
2023-04-21T18:51:05.570Z,26.58
2023-04-21T18:53:34.664Z,26.70
2023-04-21T18:56:03.595Z,27.33
2023-04-21T18:58:33.859Z,25.92
2023-04-21T19:01:02.862Z,25.17
2023-04-21T19:03:32.048Z,25.90
2023-04-21T19:06:01.307Z,26.73
2023-04-21T19:08:41.352Z,26.55
2023-04-21T19:11:12.833Z,25.08
2023-04-21T19:13:43.336Z,28.08
2023-04-21T19:16:13.892Z,25.85
2023-04-21T19:18:42.882Z,25.27
2023-04-21T19:21:16.845Z,26.63
2023-04-21T19:23:46.119Z,27.67
2023-04-21T19:26:15.162Z,29.45
2023-04-21T19:28:46.228Z,28.25
2023-04-21T19:31:21.532Z,29.85
2023-04-21T19:33:50.960Z,28.15
2023-04-21T19:36:20.248Z,30.10
2023-04-21T19:38:49.814Z,28.48
2023-04-21T19:41:18.727Z,27.80
2023-04-21T19:43:48.985Z,29.73
2023-04-21T19:46:18.012Z,31.45
2023-04-21T19:48:47.806Z,30.35
2023-04-21T19:51:16.698Z,28.70
2023-04-21T19:53:49.401Z,29.50
2023-04-21T19:56:22.447Z,30.30
2023-04-21T19:58:53.606Z,31.83
2023-04-21T20:01:22.720Z,31.13
2023-04-21T20:03:51.957Z,29.65
2023-04-21T20:06:21.089Z,29.48
2023-04-21T20:08:50.146Z,27.77
2023-04-21T20:11:19.456Z,27.83
2023-04-21T20:13:48.582Z,30.67
2023-04-21T20:16:20.056Z,29.42
2023-04-21T20:18:49.690Z,29.13
2023-04-21T20:21:18.590Z,32.30
2023-04-21T20:23:47.514Z,32.80
2023-04-21T20:26:16.531Z,32.38
2023-04-21T20:28:45.572Z,32.20
2023-04-21T20:31:14.748Z,30.25
2023-04-21T20:33:45.754Z,33.25
2023-04-21T20:36:14.747Z,32.85
2023-04-21T20:38:46.603Z,30.92
2023-04-21T20:43:44.220Z,26.75
2023-04-21T20:46:13.996Z,29.05
2023-04-21T20:48:43.017Z,26.77
2023-04-21T20:51:13.539Z,31.33
2023-04-21T20:53:43.066Z,29.00
2023-04-21T20:56:12.320Z,31.33
2023-04-21T20:58:42.493Z,29.80
2023-04-21T21:01:13.484Z,28.48
2023-04-21T21:03:43.284Z,29.05
2023-04-21T21:06:14.633Z,26.08
2023-04-21T21:08:43.785Z,29.42
2023-04-21T21:11:12.970Z,30.77
2023-04-21T21:13:42.741Z,28.80
2023-04-21T21:16:11.940Z,30.88
2023-04-21T21:18:41.571Z,28.52
2023-04-21T21:21:10.768Z,29.45
2023-04-21T21:23:42.434Z,30.77
2023-04-21T21:26:11.943Z,34.03
2023-04-21T21:28:42.394Z,30.35
2023-04-21T21:31:12.443Z,27.97
2023-04-21T21:33:41.690Z,29.13
2023-04-21T21:36:11.311Z,29.48
2023-04-21T21:38:42.221Z,29.55
2023-04-21T21:41:12.370Z,28.52
2023-04-21T21:43:41.938Z,31.23
2023-04-21T21:46:11.407Z,30.10
2023-04-21T21:48:40.712Z,28.35
2023-04-21T21:51:10.765Z,28.75
2023-04-21T21:53:40.166Z,28.08
2023-04-21T21:56:10.785Z,27.10
2023-04-21T21:58:39.901Z,28.38
2023-04-21T22:01:09.434Z,29.38
2023-04-21T22:03:38.653Z,28.95
2023-04-21T22:06:08.639Z,30.63
2023-04-21T22:08:38.738Z,27.10
2023-04-21T22:11:10.260Z,27.83
2023-04-21T22:13:40.742Z,27.30
2023-04-21T22:16:09.942Z,28.48
2023-04-21T22:18:39.182Z,30.60
2023-04-21T22:21:08.517Z,27.75
2023-04-21T22:23:38.222Z,25.83
2023-04-21T22:26:07.789Z,27.08
2023-04-21T22:28:37.061Z,26.33
2023-04-21T22:31:07.921Z,26.50
2023-04-21T22:33:37.688Z,26.65
2023-04-21T22:36:09.653Z,28.05
2023-04-21T22:38:40.370Z,28.83
2023-04-21T22:41:12.049Z,26.25
2023-04-21T22:43:41.714Z,25.02
2023-04-21T22:46:12.616Z,25.55
2023-04-21T22:48:43.145Z,25.42
2023-04-21T22:51:12.330Z,25.70
2023-04-21T22:53:41.286Z,25.98
2023-04-21T22:56:10.587Z,25.00
2023-04-21T22:58:41.625Z,27.92
2023-04-21T23:01:12.333Z,27.45
2023-04-21T23:03:41.585Z,25.80
2023-04-21T23:06:14.016Z,25.90
2023-04-21T23:08:43.285Z,26.55
2023-04-21T23:11:12.368Z,26.02
2023-04-21T23:13:41.870Z,24.98
2023-04-21T23:16:13.231Z,26.83
2023-04-21T23:18:42.494Z,26.73
2023-04-21T23:21:11.916Z,26.70
2023-04-21T23:23:41.065Z,26.92
2023-04-21T23:26:10.288Z,27.58
2023-04-21T23:28:39.401Z,28.77
2023-04-21T23:31:08.565Z,26.50
2023-04-21T23:33:39.148Z,25.42
2023-04-21T23:36:08.699Z,26.80
2023-04-21T23:38:37.813Z,25.70
2023-04-21T23:41:06.857Z,24.55
2023-04-21T23:43:37.229Z,24.83
2023-04-21T23:46:08.268Z,25.85
2023-04-21T23:48:39.083Z,25.07
2023-04-21T23:51:08.615Z,26.75
2023-04-21T23:53:38.298Z,25.83
2023-04-21T23:56:07.591Z,25.25
2023-04-21T23:58:36.692Z,26.40
